createdAt,value
2023-03-15T00:02:04.040Z,99927.81
2023-03-15T00:04:34.112Z,99939.66
2023-03-15T00:07:06.692Z,99943.66
2023-03-15T00:09:36.101Z,99953.16
2023-03-15T00:12:06.067Z,99925.63
2023-03-15T00:14:35.686Z,99942.53
2023-03-15T00:17:04.329Z,99953.53
2023-03-15T00:19:34.320Z,99963.75
2023-03-15T00:22:02.941Z,99961.94
2023-03-15T00:24:33.595Z,99970.78
2023-03-15T00:27:06.070Z,99980.03
2023-03-15T00:29:37.075Z,99980.75
2023-03-15T00:32:06.191Z,99991.59
2023-03-15T00:34:34.861Z,99981.25
2023-03-15T00:37:06.887Z,99986.41
2023-03-15T00:39:45.316Z,100002.63
2023-03-15T00:42:18.965Z,99998.56
2023-03-15T00:44:54.357Z,100000.31
2023-03-15T00:47:22.909Z,99957.34
2023-03-15T00:49:52.136Z,100003.75
2023-03-15T00:52:22.163Z,100009.31
2023-03-15T00:54:55.193Z,100006.50
2023-03-15T00:57:27.878Z,100007.72
2023-03-15T00:59:58.549Z,100009.22
2023-03-15T01:02:31.642Z,100000.31
2023-03-15T01:05:00.869Z,100012.44
2023-03-15T01:07:30.274Z,100013.56
2023-03-15T01:10:02.139Z,100030.78
2023-03-15T01:12:34.970Z,100038.19
2023-03-15T01:15:06.057Z,100033.69
2023-03-15T01:17:35.436Z,100036.50
2023-03-15T01:20:05.609Z,100038.81
2023-03-15T01:22:36.810Z,100045.50
2023-03-15T01:25:06.572Z,100027.22
2023-03-15T01:27:36.040Z,100046.59
2023-03-15T01:30:04.648Z,100035.94
2023-03-15T01:32:36.102Z,100039.66
2023-03-15T01:35:04.742Z,100046.25
2023-03-15T01:37:34.540Z,100044.75
2023-03-15T01:40:06.929Z,100043.25
2023-03-15T01:42:52.665Z,100044.81
2023-03-15T01:46:07.544Z,100052.69
2023-03-15T01:48:45.048Z,100040.97
2023-03-15T01:51:18.405Z,100062.34
2023-03-15T01:53:53.291Z,100068.97
2023-03-15T01:56:26.066Z,100069.59
2023-03-15T01:58:58.763Z,100086.81
2023-03-15T02:01:28.212Z,100067.19
2023-03-15T02:04:06.625Z,100060.72
2023-03-15T02:06:36.576Z,100079.91
2023-03-15T02:09:15.568Z,100077.41
2023-03-15T02:11:48.081Z,100086.47
2023-03-15T02:14:19.362Z,100087.66
2023-03-15T02:16:54.173Z,100092.19
2023-03-15T02:19:36.919Z,100090.56
2023-03-15T02:22:22.220Z,100103.28
2023-03-15T02:24:58.010Z,100091.13
2023-03-15T02:28:01.605Z,100096.59
2023-03-15T02:31:00.787Z,100093.19
2023-03-15T02:34:00.805Z,100096.09
2023-03-15T02:36:33.552Z,100102.00
2023-03-15T02:39:04.593Z,100090.94
2023-03-15T02:41:52.324Z,100096.53
2023-03-15T02:45:16.677Z,100109.59
2023-03-15T02:51:09.417Z,100106.91
2023-03-15T03:06:18.321Z,100067.72
2023-03-15T03:10:07.209Z,100108.28
2023-03-15T05:50:13.188Z,100200.84
2023-03-15T06:00:51.802Z,100230.47
2023-03-15T06:03:39.646Z,100266.78
2023-03-15T06:06:20.132Z,100278.66
2023-03-15T06:08:53.185Z,100270.13
2023-03-15T06:11:22.175Z,100268.47
2023-03-15T06:13:53.287Z,100269.44
2023-03-15T06:16:21.992Z,100272.97
2023-03-15T06:18:51.702Z,100285.50
2023-03-15T06:21:24.139Z,100269.59
2023-03-15T06:23:57.265Z,100277.47
2023-03-15T06:26:26.983Z,100286.19
2023-03-15T06:28:55.668Z,100289.66
2023-03-15T06:31:24.131Z,100258.03
2023-03-15T06:33:55.269Z,100289.19
2023-03-15T06:40:23.568Z,100301.28
2023-03-15T06:42:56.886Z,100287.56
2023-03-15T06:45:26.856Z,100292.94
2023-03-15T06:47:57.957Z,100272.50
2023-03-15T06:50:46.014Z,100300.47
2023-03-15T06:53:18.981Z,100305.31
2023-03-15T06:55:55.038Z,100305.97
2023-03-15T06:58:35.502Z,100304.81
2023-03-15T07:01:24.815Z,100312.34
2023-03-15T07:03:53.254Z,100306.97
2023-03-15T07:06:21.392Z,100299.47
2023-03-15T07:08:51.963Z,100325.75
2023-03-15T07:11:26.033Z,100323.41
2023-03-15T07:13:54.432Z,100324.94
2023-03-15T07:16:25.215Z,100312.53
2023-03-15T07:18:56.851Z,100322.06
2023-03-15T07:21:29.396Z,100306.50
2023-03-15T07:24:03.452Z,100333.13
2023-03-15T07:26:36.224Z,100337.13
2023-03-15T07:29:41.664Z,100347.38
2023-03-15T07:35:49.968Z,100350.69
2023-03-15T07:44:32.367Z,100362.91
2023-03-15T07:47:06.548Z,100347.34
2023-03-15T07:49:54.423Z,100349.34
2023-03-15T07:52:23.566Z,100350.16
2023-03-15T07:54:51.611Z,100355.13
2023-03-15T07:57:23.156Z,100355.00
2023-03-15T07:59:54.347Z,100365.88
2023-03-15T08:02:23.832Z,100363.78
2023-03-15T08:04:51.935Z,100351.41
2023-03-15T08:07:20.129Z,100373.81
2023-03-15T08:09:48.987Z,100334.19
2023-03-15T08:12:17.051Z,100381.94
2023-03-15T08:14:47.579Z,100373.78
2023-03-15T08:17:18.519Z,100380.84
2023-03-15T08:19:47.556Z,100374.66
2023-03-15T08:22:18.443Z,100387.06
2023-03-15T08:24:46.670Z,100384.41
2023-03-15T08:27:16.922Z,100382.41
2023-03-15T08:29:53.318Z,100383.75
2023-03-15T08:32:22.182Z,100395.13
2023-03-15T08:34:53.164Z,100377.69
2023-03-15T08:37:22.441Z,100373.81
2023-03-15T08:39:58.862Z,100394.31
2023-03-15T08:42:27.768Z,100375.09
2023-03-15T08:44:59.544Z,100393.91
2023-03-15T08:47:29.206Z,100398.59
2023-03-15T08:50:05.858Z,100411.13
2023-03-15T08:52:39.445Z,100412.78
2023-03-15T08:55:16.516Z,100412.47
2023-03-15T08:57:45.434Z,100414.25
2023-03-15T09:00:20.972Z,100424.50
2023-03-15T09:02:50.379Z,100406.75
2023-03-15T09:05:19.635Z,100428.34
2023-03-15T09:07:48.424Z,100435.34
2023-03-15T09:10:19.294Z,100439.16
2023-03-15T09:12:52.134Z,100434.69
2023-03-15T09:15:28.056Z,100439.88
2023-03-15T09:17:56.909Z,100443.69
2023-03-15T09:20:29.094Z,100440.53
2023-03-15T09:23:03.113Z,100394.91
2023-03-15T09:25:31.533Z,100448.88
2023-03-15T09:27:59.667Z,100434.34
2023-03-15T09:30:29.813Z,100404.13
2023-03-15T09:33:00.835Z,100445.66
2023-03-15T09:35:31.108Z,100444.34
2023-03-15T09:38:00.987Z,100447.41
2023-03-15T09:40:30.837Z,100437.97
2023-03-15T09:43:16.411Z,100459.84
2023-03-15T09:46:21.311Z,100462.66
2023-03-15T09:48:56.919Z,100454.94
2023-03-15T09:51:39.645Z,100467.53
2023-03-15T09:54:14.189Z,100470.00
2023-03-15T09:56:51.983Z,100463.84
2023-03-15T09:59:36.071Z,100449.06
2023-03-15T10:02:22.310Z,100471.41
2023-03-15T10:04:55.878Z,100468.47
2023-03-15T10:07:28.508Z,100475.00
2023-03-15T10:10:02.114Z,100468.34
2023-03-15T10:12:40.791Z,100473.22
2023-03-15T10:15:26.178Z,100475.56
2023-03-15T10:18:12.699Z,100469.25
2023-03-15T10:20:46.308Z,100482.44
2023-03-15T10:23:20.900Z,100470.06
2023-03-15T10:25:52.609Z,100486.03
2023-03-15T10:28:26.043Z,100482.91
2023-03-15T10:30:54.418Z,100485.03
2023-03-15T10:33:29.450Z,100482.78
2023-03-15T10:36:09.691Z,100466.03
2023-03-15T10:38:42.243Z,100464.63
2023-03-15T10:41:28.765Z,100490.31
2023-03-15T10:44:12.960Z,100484.22
2023-03-15T10:46:42.331Z,100479.22
2023-03-15T10:49:14.017Z,100474.50
2023-03-15T10:51:46.595Z,100485.75
2023-03-15T10:54:32.084Z,100484.31
2023-03-15T10:57:20.118Z,100471.03
2023-03-15T11:04:16.696Z,100474.66
2023-03-15T11:06:49.551Z,100476.94
2023-03-15T11:09:23.951Z,100469.16
2023-03-15T11:12:05.170Z,100473.53
2023-03-15T11:14:40.375Z,100457.47
2023-03-15T11:17:18.268Z,100484.75
2023-03-15T11:19:59.489Z,100466.47
2023-03-15T11:22:28.037Z,100478.31
2023-03-15T11:25:01.525Z,100501.09
2023-03-15T11:27:33.438Z,100494.47
2023-03-15T11:30:04.441Z,100492.44
2023-03-15T11:32:37.079Z,100488.88
2023-03-15T11:35:12.789Z,100499.97
2023-03-15T11:40:34.492Z,100464.44
2023-03-15T11:43:09.192Z,100504.53
2023-03-15T11:45:43.838Z,100491.88
2023-03-15T11:48:25.924Z,100492.72
2023-03-15T11:51:05.220Z,100493.75
2023-03-15T11:53:40.297Z,100476.91
2023-03-15T11:56:31.090Z,100501.94
2023-03-15T11:59:20.192Z,100498.00
2023-03-15T12:05:15.861Z,100510.53
2023-03-15T12:08:19.826Z,100511.84
2023-03-15T12:10:52.803Z,100517.00
2023-03-15T12:13:25.595Z,100495.44
2023-03-15T12:21:35.996Z,100529.13
2023-03-15T12:24:23.554Z,100522.44
2023-03-15T12:27:02.549Z,100506.72
2023-03-15T12:29:48.045Z,100503.53
2023-03-15T12:32:35.693Z,100552.00
2023-03-15T12:35:15.586Z,100538.09
2023-03-15T12:41:04.040Z,100540.59
2023-03-15T12:44:00.536Z,100549.28
2023-03-15T12:46:58.787Z,100537.75
2023-03-15T12:52:47.610Z,100536.81
2023-03-15T12:55:35.648Z,100532.81
2023-03-15T13:01:55.511Z,100534.53
2023-03-15T13:11:14.827Z,100543.59
2023-03-15T13:17:27.535Z,100547.88
2023-03-15T13:20:20.130Z,100531.41
2023-03-15T13:22:56.439Z,100548.94
2023-03-15T13:25:47.484Z,100508.03
2023-03-15T13:28:26.485Z,100527.72
2023-03-15T13:30:59.981Z,100511.50
2023-03-15T13:33:34.299Z,100538.97
2023-03-15T13:36:07.054Z,100518.38
2023-03-15T13:38:43.748Z,100529.00
2023-03-15T13:41:24.795Z,100508.84
2023-03-15T13:44:01.474Z,100530.28
2023-03-15T13:46:38.532Z,100527.59
2023-03-15T13:49:14.398Z,100523.59
2023-03-15T13:52:07.573Z,100529.44
2023-03-15T13:54:43.197Z,100520.94
2023-03-15T14:00:17.201Z,100523.00
2023-03-15T14:09:20.552Z,100517.28
2023-03-15T14:15:13.589Z,100519.88
2023-03-15T14:17:55.580Z,100486.53
2023-03-15T14:20:34.531Z,100525.53
2023-03-15T14:27:25.960Z,100528.91
2023-03-15T14:33:26.104Z,100530.19
2023-03-15T14:36:19.567Z,100517.84
2023-03-15T14:38:53.790Z,100522.47
2023-03-15T14:41:54.241Z,100531.81
2023-03-15T14:44:37.266Z,100513.53
2023-03-15T14:48:12.684Z,100544.53
2023-03-15T14:54:52.522Z,100537.88
2023-03-15T14:58:05.442Z,100542.88
2023-03-15T15:00:55.547Z,100541.03
2023-03-15T16:29:29.590Z,100611.09
2023-03-15T16:32:33.376Z,100619.19
2023-03-15T17:43:11.670Z,100685.50
2023-03-15T17:45:44.583Z,100683.59
2023-03-15T17:51:17.810Z,100670.47
2023-03-15T17:53:50.859Z,100696.00
2023-03-15T17:56:23.295Z,100694.88
2023-03-15T17:58:53.043Z,100700.03
2023-03-15T18:02:08.136Z,100689.13
2023-03-15T22:39:02.571Z,100806.34
2023-03-15T23:18:52.824Z,100858.22
2023-03-15T23:34:57.259Z,100838.16
2023-03-15T23:37:42.875Z,100866.13
2023-03-15T23:40:41.664Z,100867.25
2023-03-15T23:43:17.300Z,100862.91
2023-03-15T23:59:50.904Z,100795.31
